sensor_id;sensor_type;location;lat;lon;timestamp;P1;durP1;ratioP1;P2;durP2;ratioP2
45328;SDS011;31063;48.356;10.896;2023-06-14T00:01:18;8.90;;;4.90;;
45328;SDS011;31063;48.356;10.896;2023-06-14T00:03:45;6.15;;;4.78;;
45328;SDS011;31063;48.356;10.896;2023-06-14T00:06:12;6.93;;;5.63;;
45328;SDS011;31063;48.356;10.896;2023-06-14T00:08:38;6.07;;;4.70;;
45328;SDS011;31063;48.356;10.896;2023-06-14T00:11:05;8.02;;;5.38;;
45328;SDS011;31063;48.356;10.896;2023-06-14T00:13:31;8.07;;;5.30;;
45328;SDS011;31063;48.356;10.896;2023-06-14T00:15:57;7.60;;;4.85;;
45328;SDS011;31063;48.356;10.896;2023-06-14T00:18:23;7.00;;;5.13;;
45328;SDS011;31063;48.356;10.896;2023-06-14T00:20:49;7.57;;;5.20;;
45328;SDS011;31063;48.356;10.896;2023-06-14T00:23:15;6.53;;;4.43;;
45328;SDS011;31063;48.356;10.896;2023-06-14T00:25:41;6.50;;;5.07;;
45328;SDS011;31063;48.356;10.896;2023-06-14T00:28:07;8.17;;;4.93;;
45328;SDS011;31063;48.356;10.896;2023-06-14T00:30:32;10.83;;;5.13;;
45328;SDS011;31063;48.356;10.896;2023-06-14T00:32:58;9.07;;;5.13;;
45328;SDS011;31063;48.356;10.896;2023-06-14T00:35:24;7.35;;;4.63;;
45328;SDS011;31063;48.356;10.896;2023-06-14T00:37:50;8.32;;;5.28;;
45328;SDS011;31063;48.356;10.896;2023-06-14T00:40:16;7.17;;;5.50;;
45328;SDS011;31063;48.356;10.896;2023-06-14T00:42:41;7.77;;;5.03;;
45328;SDS011;31063;48.356;10.896;2023-06-14T00:45:07;7.27;;;5.17;;
45328;SDS011;31063;48.356;10.896;2023-06-14T00:50:00;6.15;;;5.18;;
45328;SDS011;31063;48.356;10.896;2023-06-14T00:52:27;8.02;;;5.57;;
45328;SDS011;31063;48.356;10.896;2023-06-14T00:54:54;6.35;;;4.80;;
45328;SDS011;31063;48.356;10.896;2023-06-14T00:57:20;8.10;;;4.70;;
45328;SDS011;31063;48.356;10.896;2023-06-14T00:59:49;7.03;;;4.93;;
45328;SDS011;31063;48.356;10.896;2023-06-14T01:02:15;7.60;;;5.20;;
45328;SDS011;31063;48.356;10.896;2023-06-14T01:04:43;7.18;;;4.65;;
45328;SDS011;31063;48.356;10.896;2023-06-14T01:07:30;9.32;;;4.43;;
45328;SDS011;31063;48.356;10.896;2023-06-14T01:15:30;7.30;;;4.95;;
45328;SDS011;31063;48.356;10.896;2023-06-14T01:17:56;9.48;;;4.97;;
45328;SDS011;31063;48.356;10.896;2023-06-14T01:20:36;8.73;;;5.00;;
45328;SDS011;31063;48.356;10.896;2023-06-14T01:23:02;8.77;;;4.53;;
45328;SDS011;31063;48.356;10.896;2023-06-14T01:25:28;7.40;;;5.20;;
45328;SDS011;31063;48.356;10.896;2023-06-14T01:30:29;9.50;;;5.03;;
45328;SDS011;31063;48.356;10.896;2023-06-14T01:32:56;9.13;;;4.78;;
45328;SDS011;31063;48.356;10.896;2023-06-14T01:35:23;5.88;;;4.90;;
45328;SDS011;31063;48.356;10.896;2023-06-14T01:37:49;6.18;;;4.93;;
45328;SDS011;31063;48.356;10.896;2023-06-14T01:40:17;6.68;;;4.97;;
45328;SDS011;31063;48.356;10.896;2023-06-14T01:42:44;8.60;;;5.00;;
45328;SDS011;31063;48.356;10.896;2023-06-14T01:45:12;5.60;;;5.00;;
45328;SDS011;31063;48.356;10.896;2023-06-14T01:47:40;6.18;;;5.10;;
45328;SDS011;31063;48.356;10.896;2023-06-14T01:50:06;8.18;;;4.88;;
45328;SDS011;31063;48.356;10.896;2023-06-14T01:52:32;8.48;;;4.80;;
45328;SDS011;31063;48.356;10.896;2023-06-14T01:54:58;7.70;;;4.90;;
45328;SDS011;31063;48.356;10.896;2023-06-14T01:57:28;7.15;;;5.00;;
45328;SDS011;31063;48.356;10.896;2023-06-14T01:59:54;7.25;;;5.03;;
45328;SDS011;31063;48.356;10.896;2023-06-14T02:02:20;7.67;;;5.03;;
45328;SDS011;31063;48.356;10.896;2023-06-14T02:04:45;8.30;;;4.80;;
45328;SDS011;31063;48.356;10.896;2023-06-14T02:07:12;6.47;;;5.03;;
45328;SDS011;31063;48.356;10.896;2023-06-14T02:12:05;8.40;;;5.30;;
45328;SDS011;31063;48.356;10.896;2023-06-14T02:14:31;6.65;;;5.15;;
45328;SDS011;31063;48.356;10.896;2023-06-14T02:16:57;8.52;;;5.72;;
45328;SDS011;31063;48.356;10.896;2023-06-14T02:19:23;6.20;;;5.30;;
45328;SDS011;31063;48.356;10.896;2023-06-14T02:21:49;6.50;;;5.35;;
45328;SDS011;31063;48.356;10.896;2023-06-14T02:24:15;11.13;;;5.63;;
45328;SDS011;31063;48.356;10.896;2023-06-14T02:26:41;7.75;;;5.40;;
45328;SDS011;31063;48.356;10.896;2023-06-14T02:29:07;6.93;;;5.68;;
45328;SDS011;31063;48.356;10.896;2023-06-14T02:31:36;7.63;;;5.32;;
45328;SDS011;31063;48.356;10.896;2023-06-14T02:34:01;9.15;;;5.55;;
45328;SDS011;31063;48.356;10.896;2023-06-14T02:36:27;9.38;;;5.32;;
45328;SDS011;31063;48.356;10.896;2023-06-14T02:38:56;11.10;;;5.65;;
45328;SDS011;31063;48.356;10.896;2023-06-14T02:41:25;11.23;;;6.05;;
45328;SDS011;31063;48.356;10.896;2023-06-14T02:46:17;8.23;;;5.50;;
45328;SDS011;31063;48.356;10.896;2023-06-14T02:48:43;9.93;;;5.80;;
45328;SDS011;31063;48.356;10.896;2023-06-14T02:51:09;9.93;;;5.55;;
45328;SDS011;31063;48.356;10.896;2023-06-14T02:53:35;12.50;;;6.35;;
45328;SDS011;31063;48.356;10.896;2023-06-14T02:56:01;10.57;;;5.82;;
45328;SDS011;31063;48.356;10.896;2023-06-14T02:58:28;11.20;;;5.78;;
45328;SDS011;31063;48.356;10.896;2023-06-14T03:00:54;12.57;;;6.13;;
45328;SDS011;31063;48.356;10.896;2023-06-14T03:03:20;8.40;;;5.75;;
45328;SDS011;31063;48.356;10.896;2023-06-14T03:05:47;8.23;;;5.78;;
45328;SDS011;31063;48.356;10.896;2023-06-14T03:08:15;9.48;;;6.00;;
45328;SDS011;31063;48.356;10.896;2023-06-14T03:10:44;7.78;;;5.28;;
45328;SDS011;31063;48.356;10.896;2023-06-14T03:13:12;7.28;;;5.53;;
45328;SDS011;31063;48.356;10.896;2023-06-14T03:15:38;11.30;;;5.88;;
45328;SDS011;31063;48.356;10.896;2023-06-14T03:18:07;12.20;;;5.75;;
45328;SDS011;31063;48.356;10.896;2023-06-14T03:20:34;9.57;;;5.72;;
45328;SDS011;31063;48.356;10.896;2023-06-14T03:23:01;7.70;;;5.43;;
45328;SDS011;31063;48.356;10.896;2023-06-14T03:27:54;10.65;;;5.75;;
45328;SDS011;31063;48.356;10.896;2023-06-14T03:30:20;11.05;;;5.97;;
45328;SDS011;31063;48.356;10.896;2023-06-14T03:32:46;10.27;;;6.53;;
45328;SDS011;31063;48.356;10.896;2023-06-14T03:35:12;12.13;;;6.37;;
45328;SDS011;31063;48.356;10.896;2023-06-14T03:37:42;12.80;;;6.60;;
45328;SDS011;31063;48.356;10.896;2023-06-14T03:40:09;11.07;;;6.68;;
45328;SDS011;31063;48.356;10.896;2023-06-14T03:42:35;11.48;;;6.38;;
45328;SDS011;31063;48.356;10.896;2023-06-14T03:45:00;12.90;;;6.17;;
45328;SDS011;31063;48.356;10.896;2023-06-14T03:47:26;7.60;;;6.27;;
45328;SDS011;31063;48.356;10.896;2023-06-14T03:49:52;8.45;;;5.93;;
45328;SDS011;31063;48.356;10.896;2023-06-14T03:52:17;8.50;;;6.40;;
45328;SDS011;31063;48.356;10.896;2023-06-14T03:54:43;10.63;;;5.93;;
45328;SDS011;31063;48.356;10.896;2023-06-14T03:57:09;8.30;;;6.00;;
45328;SDS011;31063;48.356;10.896;2023-06-14T03:59:35;13.30;;;6.60;;
45328;SDS011;31063;48.356;10.896;2023-06-14T04:02:01;11.00;;;6.28;;
45328;SDS011;31063;48.356;10.896;2023-06-14T04:04:27;9.20;;;6.05;;
45328;SDS011;31063;48.356;10.896;2023-06-14T04:06:56;8.93;;;6.30;;
45328;SDS011;31063;48.356;10.896;2023-06-14T04:09:23;9.13;;;5.85;;
45328;SDS011;31063;48.356;10.896;2023-06-14T04:11:50;10.30;;;6.35;;
45328;SDS011;31063;48.356;10.896;2023-06-14T04:14:18;8.82;;;6.03;;
45328;SDS011;31063;48.356;10.896;2023-06-14T04:16:44;12.27;;;6.90;;
45328;SDS011;31063;48.356;10.896;2023-06-14T04:19:11;10.13;;;7.00;;
45328;SDS011;31063;48.356;10.896;2023-06-14T04:21:36;9.00;;;6.33;;
45328;SDS011;31063;48.356;10.896;2023-06-14T04:24:02;12.10;;;6.97;;
45328;SDS011;31063;48.356;10.896;2023-06-14T04:26:28;11.77;;;7.60;;
45328;SDS011;31063;48.356;10.896;2023-06-14T04:28:54;9.60;;;6.22;;
45328;SDS011;31063;48.356;10.896;2023-06-14T04:31:26;10.10;;;7.25;;
45328;SDS011;31063;48.356;10.896;2023-06-14T04:33:58;10.35;;;7.20;;
45328;SDS011;31063;48.356;10.896;2023-06-14T04:36:24;9.48;;;6.95;;
45328;SDS011;31063;48.356;10.896;2023-06-14T04:38:52;9.73;;;7.22;;
45328;SDS011;31063;48.356;10.896;2023-06-14T04:41:20;9.38;;;7.07;;
45328;SDS011;31063;48.356;10.896;2023-06-14T04:43:48;12.88;;;7.47;;
45328;SDS011;31063;48.356;10.896;2023-06-14T04:46:14;9.18;;;6.40;;
45328;SDS011;31063;48.356;10.896;2023-06-14T04:48:40;10.80;;;7.18;;
45328;SDS011;31063;48.356;10.896;2023-06-14T04:51:08;8.25;;;6.72;;
45328;SDS011;31063;48.356;10.896;2023-06-14T04:53:34;12.93;;;7.25;;
45328;SDS011;31063;48.356;10.896;2023-06-14T04:56:00;10.88;;;7.03;;
45328;SDS011;31063;48.356;10.896;2023-06-14T04:58:26;9.45;;;6.85;;
45328;SDS011;31063;48.356;10.896;2023-06-14T05:00:53;8.05;;;6.75;;
45328;SDS011;31063;48.356;10.896;2023-06-14T05:03:20;11.15;;;7.38;;
45328;SDS011;31063;48.356;10.896;2023-06-14T05:05:47;9.20;;;6.40;;
45328;SDS011;31063;48.356;10.896;2023-06-14T05:10:39;9.00;;;7.03;;
45328;SDS011;31063;48.356;10.896;2023-06-14T05:13:04;9.67;;;7.33;;
45328;SDS011;31063;48.356;10.896;2023-06-14T05:15:30;12.13;;;6.53;;
45328;SDS011;31063;48.356;10.896;2023-06-14T05:17:56;13.70;;;6.80;;
45328;SDS011;31063;48.356;10.896;2023-06-14T05:20:22;8.45;;;6.63;;
45328;SDS011;31063;48.356;10.896;2023-06-14T05:22:49;11.68;;;7.70;;
45328;SDS011;31063;48.356;10.896;2023-06-14T05:25:18;11.35;;;6.68;;
45328;SDS011;31063;48.356;10.896;2023-06-14T05:27:45;8.93;;;6.60;;
45328;SDS011;31063;48.356;10.896;2023-06-14T05:30:11;9.03;;;6.20;;
45328;SDS011;31063;48.356;10.896;2023-06-14T05:32:37;10.63;;;6.85;;
45328;SDS011;31063;48.356;10.896;2023-06-14T05:35:03;10.75;;;5.97;;
45328;SDS011;31063;48.356;10.896;2023-06-14T05:37:29;7.70;;;5.13;;
45328;SDS011;31063;48.356;10.896;2023-06-14T05:39:56;12.02;;;5.40;;
45328;SDS011;31063;48.356;10.896;2023-06-14T05:42:21;6.90;;;5.53;;
45328;SDS011;31063;48.356;10.896;2023-06-14T05:44:47;7.27;;;5.13;;
45328;SDS011;31063;48.356;10.896;2023-06-14T05:47:13;6.53;;;5.27;;
45328;SDS011;31063;48.356;10.896;2023-06-14T05:49:38;9.73;;;5.77;;
45328;SDS011;31063;48.356;10.896;2023-06-14T05:52:04;9.25;;;5.55;;
45328;SDS011;31063;48.356;10.896;2023-06-14T05:54:30;9.52;;;5.45;;
45328;SDS011;31063;48.356;10.896;2023-06-14T05:56:56;6.68;;;5.25;;
45328;SDS011;31063;48.356;10.896;2023-06-14T05:59:29;7.95;;;4.93;;
45328;SDS011;31063;48.356;10.896;2023-06-14T06:01:55;8.43;;;5.55;;
45328;SDS011;31063;48.356;10.896;2023-06-14T06:04:20;9.60;;;5.07;;
45328;SDS011;31063;48.356;10.896;2023-06-14T06:06:46;9.27;;;5.87;;
45328;SDS011;31063;48.356;10.896;2023-06-14T06:09:12;10.00;;;5.85;;
45328;SDS011;31063;48.356;10.896;2023-06-14T06:11:39;11.52;;;5.00;;
45328;SDS011;31063;48.356;10.896;2023-06-14T06:14:05;7.88;;;4.93;;
45328;SDS011;31063;48.356;10.896;2023-06-14T06:16:31;8.57;;;5.25;;
45328;SDS011;31063;48.356;10.896;2023-06-14T06:18:57;7.50;;;5.35;;
45328;SDS011;31063;48.356;10.896;2023-06-14T06:21:22;8.13;;;5.00;;
45328;SDS011;31063;48.356;10.896;2023-06-14T06:23:48;9.50;;;5.37;;
45328;SDS011;31063;48.356;10.896;2023-06-14T06:26:14;12.55;;;4.88;;
45328;SDS011;31063;48.356;10.896;2023-06-14T06:28:40;7.65;;;4.97;;
45328;SDS011;31063;48.356;10.896;2023-06-14T06:31:06;7.00;;;4.80;;
45328;SDS011;31063;48.356;10.896;2023-06-14T06:33:31;6.70;;;5.77;;
45328;SDS011;31063;48.356;10.896;2023-06-14T06:35:57;8.63;;;4.90;;
45328;SDS011;31063;48.356;10.896;2023-06-14T06:38:22;11.03;;;5.03;;
45328;SDS011;31063;48.356;10.896;2023-06-14T06:40:48;6.53;;;4.63;;
45328;SDS011;31063;48.356;10.896;2023-06-14T06:43:13;7.80;;;5.50;;
45328;SDS011;31063;48.356;10.896;2023-06-14T06:45:41;10.43;;;4.88;;
45328;SDS011;31063;48.356;10.896;2023-06-14T06:48:07;5.55;;;5.00;;
45328;SDS011;31063;48.356;10.896;2023-06-14T06:50:35;7.00;;;4.90;;
45328;SDS011;31063;48.356;10.896;2023-06-14T06:53:01;6.68;;;5.13;;
45328;SDS011;31063;48.356;10.896;2023-06-14T06:55:26;7.63;;;4.90;;
45328;SDS011;31063;48.356;10.896;2023-06-14T06:57:52;7.67;;;4.83;;
45328;SDS011;31063;48.356;10.896;2023-06-14T07:02:44;9.07;;;5.22;;
45328;SDS011;31063;48.356;10.896;2023-06-14T07:05:10;5.88;;;4.40;;
45328;SDS011;31063;48.356;10.896;2023-06-14T07:07:36;8.23;;;5.07;;
45328;SDS011;31063;48.356;10.896;2023-06-14T07:10:02;8.33;;;4.43;;
45328;SDS011;31063;48.356;10.896;2023-06-14T07:12:30;7.32;;;4.32;;
45328;SDS011;31063;48.356;10.896;2023-06-14T07:14:58;7.18;;;4.65;;
45328;SDS011;31063;48.356;10.896;2023-06-14T07:17:24;7.22;;;4.55;;
45328;SDS011;31063;48.356;10.896;2023-06-14T07:19:50;6.23;;;4.37;;
45328;SDS011;31063;48.356;10.896;2023-06-14T07:22:16;8.10;;;4.15;;
45328;SDS011;31063;48.356;10.896;2023-06-14T07:24:42;10.45;;;4.60;;
45328;SDS011;31063;48.356;10.896;2023-06-14T07:27:08;11.07;;;4.33;;
45328;SDS011;31063;48.356;10.896;2023-06-14T07:29:34;6.80;;;4.57;;
45328;SDS011;31063;48.356;10.896;2023-06-14T07:32:00;9.70;;;4.35;;
45328;SDS011;31063;48.356;10.896;2023-06-14T07:34:25;5.03;;;3.90;;
45328;SDS011;31063;48.356;10.896;2023-06-14T07:36:52;6.32;;;4.22;;
45328;SDS011;31063;48.356;10.896;2023-06-14T07:39:19;5.60;;;4.10;;
45328;SDS011;31063;48.356;10.896;2023-06-14T07:41:44;4.47;;;3.93;;
45328;SDS011;31063;48.356;10.896;2023-06-14T07:44:10;7.90;;;4.67;;
45328;SDS011;31063;48.356;10.896;2023-06-14T07:46:37;7.30;;;3.60;;
45328;SDS011;31063;48.356;10.896;2023-06-14T07:49:03;7.10;;;4.22;;
45328;SDS011;31063;48.356;10.896;2023-06-14T07:51:29;5.72;;;4.07;;
45328;SDS011;31063;48.356;10.896;2023-06-14T07:53:54;8.20;;;4.30;;
45328;SDS011;31063;48.356;10.896;2023-06-14T07:56:21;6.88;;;4.30;;
45328;SDS011;31063;48.356;10.896;2023-06-14T07:58:48;5.82;;;4.03;;
45328;SDS011;31063;48.356;10.896;2023-06-14T08:01:13;4.43;;;3.60;;
45328;SDS011;31063;48.356;10.896;2023-06-14T08:03:40;5.05;;;3.80;;
45328;SDS011;31063;48.356;10.896;2023-06-14T08:06:06;6.65;;;4.22;;
45328;SDS011;31063;48.356;10.896;2023-06-14T08:08:32;7.57;;;3.80;;
45328;SDS011;31063;48.356;10.896;2023-06-14T08:10:58;4.05;;;3.28;;
45328;SDS011;31063;48.356;10.896;2023-06-14T08:13:24;7.40;;;3.67;;
45328;SDS011;31063;48.356;10.896;2023-06-14T08:15:49;3.90;;;3.38;;
45328;SDS011;31063;48.356;10.896;2023-06-14T08:18:15;6.70;;;3.47;;
45328;SDS011;31063;48.356;10.896;2023-06-14T08:20:41;4.87;;;3.83;;
45328;SDS011;31063;48.356;10.896;2023-06-14T08:23:06;4.50;;;3.92;;
45328;SDS011;31063;48.356;10.896;2023-06-14T08:25:33;7.30;;;3.30;;
45328;SDS011;31063;48.356;10.896;2023-06-14T08:27:59;7.10;;;3.70;;
45328;SDS011;31063;48.356;10.896;2023-06-14T08:30:25;8.23;;;3.70;;
45328;SDS011;31063;48.356;10.896;2023-06-14T08:32:51;4.93;;;3.10;;
45328;SDS011;31063;48.356;10.896;2023-06-14T08:35:17;7.83;;;3.50;;
45328;SDS011;31063;48.356;10.896;2023-06-14T08:37:43;5.55;;;3.22;;
45328;SDS011;31063;48.356;10.896;2023-06-14T08:40:18;6.67;;;3.60;;
45328;SDS011;31063;48.356;10.896;2023-06-14T08:42:50;7.68;;;4.22;;
45328;SDS011;31063;48.356;10.896;2023-06-14T08:45:17;7.10;;;3.60;;
45328;SDS011;31063;48.356;10.896;2023-06-14T08:47:45;5.88;;;3.30;;
45328;SDS011;31063;48.356;10.896;2023-06-14T08:50:17;5.75;;;3.20;;
45328;SDS011;31063;48.356;10.896;2023-06-14T08:52:47;5.68;;;3.70;;
45328;SDS011;31063;48.356;10.896;2023-06-14T08:55:17;6.43;;;3.70;;
45328;SDS011;31063;48.356;10.896;2023-06-14T08:57:45;5.43;;;3.42;;
45328;SDS011;31063;48.356;10.896;2023-06-14T09:00:12;7.28;;;3.60;;
45328;SDS011;31063;48.356;10.896;2023-06-14T09:02:39;7.13;;;3.15;;
45328;SDS011;31063;48.356;10.896;2023-06-14T09:05:08;6.78;;;3.40;;
45328;SDS011;31063;48.356;10.896;2023-06-14T09:07:35;6.40;;;3.10;;
45328;SDS011;31063;48.356;10.896;2023-06-14T09:10:13;5.93;;;3.40;;
45328;SDS011;31063;48.356;10.896;2023-06-14T09:12:40;4.53;;;3.00;;
45328;SDS011;31063;48.356;10.896;2023-06-14T09:15:06;6.85;;;3.20;;
45328;SDS011;31063;48.356;10.896;2023-06-14T09:17:37;3.95;;;3.05;;
45328;SDS011;31063;48.356;10.896;2023-06-14T09:20:04;6.80;;;3.05;;
45328;SDS011;31063;48.356;10.896;2023-06-14T09:22:31;6.75;;;2.70;;
45328;SDS011;31063;48.356;10.896;2023-06-14T09:27:25;3.75;;;2.97;;
45328;SDS011;31063;48.356;10.896;2023-06-14T09:29:51;4.45;;;3.17;;
45328;SDS011;31063;48.356;10.896;2023-06-14T09:32:17;4.78;;;2.90;;
45328;SDS011;31063;48.356;10.896;2023-06-14T09:34:43;6.88;;;3.00;;
45328;SDS011;31063;48.356;10.896;2023-06-14T09:37:10;6.78;;;2.90;;
45328;SDS011;31063;48.356;10.896;2023-06-14T09:39:43;6.03;;;3.30;;
45328;SDS011;31063;48.356;10.896;2023-06-14T09:42:18;6.25;;;2.95;;
45328;SDS011;31063;48.356;10.896;2023-06-14T09:44:46;5.88;;;3.05;;
45328;SDS011;31063;48.356;10.896;2023-06-14T09:47:13;5.40;;;3.00;;
45328;SDS011;31063;48.356;10.896;2023-06-14T09:49:40;5.32;;;3.13;;
45328;SDS011;31063;48.356;10.896;2023-06-14T09:52:07;4.80;;;3.15;;
45328;SDS011;31063;48.356;10.896;2023-06-14T09:54:38;3.35;;;2.78;;
45328;SDS011;31063;48.356;10.896;2023-06-14T09:57:12;4.28;;;2.90;;
45328;SDS011;31063;48.356;10.896;2023-06-14T09:59:43;3.10;;;2.80;;
45328;SDS011;31063;48.356;10.896;2023-06-14T10:05:11;6.05;;;3.10;;
45328;SDS011;31063;48.356;10.896;2023-06-14T10:10:26;3.88;;;2.83;;
45328;SDS011;31063;48.356;10.896;2023-06-14T10:12:52;5.10;;;2.75;;
45328;SDS011;31063;48.356;10.896;2023-06-14T10:23:33;4.20;;;3.42;;
45328;SDS011;31063;48.356;10.896;2023-06-14T10:26:02;5.60;;;2.90;;
45328;SDS011;31063;48.356;10.896;2023-06-14T10:28:28;3.80;;;3.15;;
45328;SDS011;31063;48.356;10.896;2023-06-14T10:31:08;8.70;;;2.92;;
45328;SDS011;31063;48.356;10.896;2023-06-14T10:33:56;5.20;;;3.10;;
45328;SDS011;31063;48.356;10.896;2023-06-14T10:38:57;5.30;;;3.23;;
45328;SDS011;31063;48.356;10.896;2023-06-14T10:41:26;4.68;;;2.92;;
45328;SDS011;31063;48.356;10.896;2023-06-14T10:43:52;5.43;;;3.40;;
45328;SDS011;31063;48.356;10.896;2023-06-14T10:49:19;5.25;;;2.92;;
45328;SDS011;31063;48.356;10.896;2023-06-14T10:52:02;2.88;;;2.65;;
45328;SDS011;31063;48.356;10.896;2023-06-14T10:54:28;4.32;;;2.90;;
45328;SDS011;31063;48.356;10.896;2023-06-14T10:56:53;4.13;;;3.28;;
45328;SDS011;31063;48.356;10.896;2023-06-14T10:59:20;5.75;;;3.53;;
45328;SDS011;31063;48.356;10.896;2023-06-14T11:02:03;5.72;;;3.22;;
45328;SDS011;31063;48.356;10.896;2023-06-14T11:04:47;5.15;;;3.20;;
45328;SDS011;31063;48.356;10.896;2023-06-14T11:12:25;3.55;;;2.92;;
45328;SDS011;31063;48.356;10.896;2023-06-14T11:14:53;4.25;;;3.28;;
45328;SDS011;31063;48.356;10.896;2023-06-14T11:17:18;5.95;;;3.08;;
45328;SDS011;31063;48.356;10.896;2023-06-14T11:19:45;3.10;;;2.70;;
45328;SDS011;31063;48.356;10.896;2023-06-14T11:22:10;5.47;;;3.03;;
45328;SDS011;31063;48.356;10.896;2023-06-14T11:24:37;6.20;;;3.22;;
45328;SDS011;31063;48.356;10.896;2023-06-14T11:27:02;3.35;;;3.05;;
45328;SDS011;31063;48.356;10.896;2023-06-14T11:29:28;8.75;;;3.47;;
45328;SDS011;31063;48.356;10.896;2023-06-14T11:34:20;4.75;;;3.47;;
45328;SDS011;31063;48.356;10.896;2023-06-14T11:36:46;5.25;;;3.10;;
45328;SDS011;31063;48.356;10.896;2023-06-14T11:39:12;4.03;;;3.15;;
45328;SDS011;31063;48.356;10.896;2023-06-14T11:41:39;5.97;;;3.08;;
45328;SDS011;31063;48.356;10.896;2023-06-14T11:44:06;5.75;;;2.65;;
45328;SDS011;31063;48.356;10.896;2023-06-14T11:48:58;4.32;;;3.10;;
45328;SDS011;31063;48.356;10.896;2023-06-14T11:51:24;3.58;;;2.80;;
45328;SDS011;31063;48.356;10.896;2023-06-14T11:53:50;5.90;;;3.05;;
45328;SDS011;31063;48.356;10.896;2023-06-14T11:56:16;4.90;;;3.33;;
45328;SDS011;31063;48.356;10.896;2023-06-14T11:58:42;5.97;;;3.08;;
45328;SDS011;31063;48.356;10.896;2023-06-14T12:01:08;3.90;;;3.10;;
45328;SDS011;31063;48.356;10.896;2023-06-14T12:03:34;7.60;;;3.38;;
45328;SDS011;31063;48.356;10.896;2023-06-14T12:06:07;6.47;;;3.30;;
45328;SDS011;31063;48.356;10.896;2023-06-14T12:08:36;3.38;;;2.80;;
45328;SDS011;31063;48.356;10.896;2023-06-14T12:11:06;4.50;;;3.20;;
45328;SDS011;31063;48.356;10.896;2023-06-14T12:13:33;5.18;;;2.65;;
45328;SDS011;31063;48.356;10.896;2023-06-14T12:15:59;6.03;;;3.03;;
45328;SDS011;31063;48.356;10.896;2023-06-14T12:18:33;4.50;;;3.03;;
45328;SDS011;31063;48.356;10.896;2023-06-14T12:21:03;4.53;;;2.80;;
45328;SDS011;31063;48.356;10.896;2023-06-14T12:23:44;4.72;;;2.47;;
45328;SDS011;31063;48.356;10.896;2023-06-14T12:26:14;4.60;;;3.40;;
45328;SDS011;31063;48.356;10.896;2023-06-14T12:28:45;5.70;;;3.28;;
45328;SDS011;31063;48.356;10.896;2023-06-14T12:31:12;7.00;;;2.97;;
45328;SDS011;31063;48.356;10.896;2023-06-14T12:33:39;6.38;;;3.00;;
45328;SDS011;31063;48.356;10.896;2023-06-14T12:36:09;4.85;;;3.15;;
45328;SDS011;31063;48.356;10.896;2023-06-14T12:38:36;3.70;;;2.65;;
45328;SDS011;31063;48.356;10.896;2023-06-14T12:41:02;5.13;;;2.83;;
45328;SDS011;31063;48.356;10.896;2023-06-14T12:43:28;5.72;;;2.88;;
45328;SDS011;31063;48.356;10.896;2023-06-14T12:45:54;7.60;;;3.30;;
45328;SDS011;31063;48.356;10.896;2023-06-14T12:48:20;4.57;;;2.85;;
45328;SDS011;31063;48.356;10.896;2023-06-14T12:50:46;5.85;;;2.95;;
45328;SDS011;31063;48.356;10.896;2023-06-14T12:53:12;6.05;;;2.90;;
45328;SDS011;31063;48.356;10.896;2023-06-14T12:55:38;4.80;;;3.05;;
45328;SDS011;31063;48.356;10.896;2023-06-14T12:58:04;6.35;;;3.03;;
45328;SDS011;31063;48.356;10.896;2023-06-14T13:00:29;4.40;;;2.90;;
45328;SDS011;31063;48.356;10.896;2023-06-14T13:02:58;4.68;;;3.13;;
45328;SDS011;31063;48.356;10.896;2023-06-14T13:05:24;3.30;;;3.00;;
45328;SDS011;31063;48.356;10.896;2023-06-14T13:07:50;3.47;;;3.13;;
45328;SDS011;31063;48.356;10.896;2023-06-14T13:10:16;6.07;;;3.25;;
45328;SDS011;31063;48.356;10.896;2023-06-14T13:12:42;8.48;;;2.75;;
45328;SDS011;31063;48.356;10.896;2023-06-14T13:15:08;7.22;;;3.35;;
45328;SDS011;31063;48.356;10.896;2023-06-14T13:17:34;5.93;;;2.67;;
45328;SDS011;31063;48.356;10.896;2023-06-14T13:20:07;4.05;;;2.80;;
45328;SDS011;31063;48.356;10.896;2023-06-14T13:22:36;7.55;;;3.60;;
45328;SDS011;31063;48.356;10.896;2023-06-14T13:25:03;4.13;;;2.90;;
45328;SDS011;31063;48.356;10.896;2023-06-14T13:27:30;6.30;;;3.08;;
45328;SDS011;31063;48.356;10.896;2023-06-14T13:29:56;5.07;;;2.75;;
45328;SDS011;31063;48.356;10.896;2023-06-14T13:32:21;4.15;;;2.95;;
45328;SDS011;31063;48.356;10.896;2023-06-14T13:34:48;7.07;;;2.78;;
45328;SDS011;31063;48.356;10.896;2023-06-14T13:37:14;3.67;;;2.80;;
45328;SDS011;31063;48.356;10.896;2023-06-14T13:39:39;8.10;;;3.03;;
45328;SDS011;31063;48.356;10.896;2023-06-14T13:42:05;5.15;;;2.90;;
45328;SDS011;31063;48.356;10.896;2023-06-14T13:44:31;5.25;;;3.08;;
45328;SDS011;31063;48.356;10.896;2023-06-14T13:46:57;4.03;;;3.00;;
45328;SDS011;31063;48.356;10.896;2023-06-14T13:49:22;7.20;;;3.38;;
45328;SDS011;31063;48.356;10.896;2023-06-14T13:51:48;5.32;;;3.10;;
45328;SDS011;31063;48.356;10.896;2023-06-14T13:54:14;6.18;;;2.72;;
45328;SDS011;31063;48.356;10.896;2023-06-14T13:56:40;5.72;;;3.00;;
45328;SDS011;31063;48.356;10.896;2023-06-14T14:01:32;5.13;;;2.67;;
45328;SDS011;31063;48.356;10.896;2023-06-14T14:03:57;5.15;;;2.50;;
45328;SDS011;31063;48.356;10.896;2023-06-14T14:06:23;3.42;;;2.92;;
45328;SDS011;31063;48.356;10.896;2023-06-14T14:08:49;4.32;;;3.25;;
45328;SDS011;31063;48.356;10.896;2023-06-14T14:13:41;3.80;;;2.88;;
45328;SDS011;31063;48.356;10.896;2023-06-14T14:18:33;4.07;;;2.90;;
45328;SDS011;31063;48.356;10.896;2023-06-14T14:20:58;8.05;;;2.88;;
45328;SDS011;31063;48.356;10.896;2023-06-14T14:23:25;7.65;;;3.35;;
45328;SDS011;31063;48.356;10.896;2023-06-14T14:25:51;4.40;;;2.83;;
45328;SDS011;31063;48.356;10.896;2023-06-14T14:28:16;7.25;;;3.40;;
45328;SDS011;31063;48.356;10.896;2023-06-14T14:30:44;3.40;;;2.78;;
45328;SDS011;31063;48.356;10.896;2023-06-14T14:35:40;10.07;;;2.80;;
45328;SDS011;31063;48.356;10.896;2023-06-14T14:38:07;5.28;;;3.10;;
45328;SDS011;31063;48.356;10.896;2023-06-14T14:40:32;6.18;;;3.38;;
45328;SDS011;31063;48.356;10.896;2023-06-14T14:42:58;4.68;;;2.95;;
45328;SDS011;31063;48.356;10.896;2023-06-14T14:45:23;6.07;;;3.30;;
45328;SDS011;31063;48.356;10.896;2023-06-14T14:47:49;3.45;;;2.65;;
45328;SDS011;31063;48.356;10.896;2023-06-14T14:50:15;3.40;;;2.55;;
45328;SDS011;31063;48.356;10.896;2023-06-14T14:55:07;3.95;;;3.03;;
45328;SDS011;31063;48.356;10.896;2023-06-14T14:59:58;3.83;;;2.95;;
45328;SDS011;31063;48.356;10.896;2023-06-14T15:02:24;6.80;;;3.03;;
45328;SDS011;31063;48.356;10.896;2023-06-14T15:04:49;5.55;;;3.20;;
45328;SDS011;31063;48.356;10.896;2023-06-14T15:07:15;4.10;;;2.70;;
45328;SDS011;31063;48.356;10.896;2023-06-14T15:09:41;4.38;;;3.10;;
45328;SDS011;31063;48.356;10.896;2023-06-14T15:12:07;6.32;;;3.03;;
45328;SDS011;31063;48.356;10.896;2023-06-14T15:14:33;6.00;;;2.80;;
45328;SDS011;31063;48.356;10.896;2023-06-14T15:16:58;4.93;;;3.35;;
45328;SDS011;31063;48.356;10.896;2023-06-14T15:19:26;4.18;;;2.83;;
45328;SDS011;31063;48.356;10.896;2023-06-14T15:21:52;5.75;;;3.20;;
45328;SDS011;31063;48.356;10.896;2023-06-14T15:24:17;7.38;;;2.67;;
45328;SDS011;31063;48.356;10.896;2023-06-14T15:26:43;3.85;;;3.00;;
45328;SDS011;31063;48.356;10.896;2023-06-14T15:29:09;7.85;;;3.30;;
45328;SDS011;31063;48.356;10.896;2023-06-14T15:31:34;7.88;;;3.08;;
45328;SDS011;31063;48.356;10.896;2023-06-14T15:34:00;4.28;;;2.83;;
45328;SDS011;31063;48.356;10.896;2023-06-14T15:36:25;3.25;;;2.70;;
45328;SDS011;31063;48.356;10.896;2023-06-14T15:38:51;6.72;;;2.80;;
45328;SDS011;31063;48.356;10.896;2023-06-14T15:43:43;8.68;;;3.20;;